createdAt,value
2022-11-16T00:00:29.035Z,98810.88
2022-11-16T00:02:57.063Z,98809.50
2022-11-16T00:05:28.487Z,98806.69
2022-11-16T00:07:58.139Z,98819.63
2022-11-16T00:10:26.084Z,98794.56
2022-11-16T00:12:54.206Z,98805.31
2022-11-16T00:15:22.729Z,98797.06
2022-11-16T00:17:50.670Z,98791.34
2022-11-16T00:20:19.135Z,98789.84
2022-11-16T00:22:47.662Z,98776.78
2022-11-16T00:25:15.650Z,98781.06
2022-11-16T00:27:43.826Z,98785.63
2022-11-16T00:30:12.431Z,98788.66
2022-11-16T00:32:40.384Z,98752.03
2022-11-16T00:35:09.296Z,98690.34
2022-11-16T00:37:37.240Z,98759.38
2022-11-16T00:40:06.090Z,98796.97
2022-11-16T00:42:34.903Z,98791.91
2022-11-16T00:45:03.159Z,98780.59
2022-11-16T00:47:31.018Z,98724.75
2022-11-16T00:49:59.626Z,98751.47
2022-11-16T00:52:27.618Z,98763.84
2022-11-16T00:54:55.820Z,98728.50
2022-11-16T00:57:25.199Z,98717.53
2022-11-16T00:59:53.207Z,98772.75
2022-11-16T01:02:21.971Z,98768.53
2022-11-16T01:04:50.195Z,98756.97
2022-11-16T01:07:18.161Z,98754.75
2022-11-16T01:09:47.824Z,98760.03
2022-11-16T01:12:18.077Z,98746.69
2022-11-16T01:14:48.540Z,98748.91
2022-11-16T01:17:16.414Z,98745.84
2022-11-16T01:19:44.738Z,98682.66
2022-11-16T01:22:12.795Z,98731.78
2022-11-16T01:24:42.363Z,98735.72
2022-11-16T01:27:10.702Z,98737.78
2022-11-16T01:29:41.336Z,98698.84
2022-11-16T01:32:09.334Z,98742.66
2022-11-16T01:34:38.379Z,98733.41
2022-11-16T01:37:38.556Z,98694.47
2022-11-16T01:40:08.306Z,98710.59
2022-11-16T01:42:37.547Z,98738.81
2022-11-16T01:45:41.398Z,98684.06
2022-11-16T01:48:18.264Z,98731.06
2022-11-16T01:50:47.842Z,98702.00
2022-11-16T01:53:17.060Z,98722.44
2022-11-16T01:55:51.372Z,98730.66
2022-11-16T01:58:38.419Z,98633.44
2022-11-16T02:01:18.192Z,98699.06
2022-11-16T02:03:51.829Z,98729.56
2022-11-16T02:06:27.553Z,98727.31
2022-11-16T02:09:55.500Z,98629.44
2022-11-16T02:12:59.460Z,98717.88
2022-11-16T02:15:57.359Z,98698.56
2022-11-16T02:18:45.026Z,98690.50
2022-11-16T02:21:45.414Z,98693.00
2022-11-16T02:24:44.396Z,98702.59
2022-11-16T02:27:43.411Z,98691.75
2022-11-16T02:30:11.886Z,98682.00
2022-11-16T02:32:58.330Z,98594.97
2022-11-16T02:35:32.757Z,98650.44
2022-11-16T02:38:28.780Z,98676.31
2022-11-16T02:41:05.352Z,98666.00
2022-11-16T02:43:53.278Z,98621.53
2022-11-16T02:46:39.029Z,98642.25
2022-11-16T02:49:17.394Z,98639.88
2022-11-16T02:51:47.996Z,98664.63
2022-11-16T02:54:19.486Z,98650.88
2022-11-16T02:57:04.042Z,98612.22
2022-11-16T02:59:49.009Z,98614.69
2022-11-16T03:02:29.649Z,98648.34
2022-11-16T03:05:08.730Z,98600.69
2022-11-16T03:07:55.680Z,98642.53
2022-11-16T03:10:58.216Z,98591.38
2022-11-16T03:13:31.597Z,98561.34
2022-11-16T03:16:05.490Z,98639.31
2022-11-16T03:18:34.615Z,98631.94
2022-11-16T03:21:35.306Z,98619.97
2022-11-16T03:24:05.083Z,98636.13
2022-11-16T03:26:51.749Z,98634.47
2022-11-16T03:30:01.655Z,98624.19
2022-11-16T03:33:02.812Z,98615.53
2022-11-16T03:36:00.892Z,98624.44
2022-11-16T03:38:33.754Z,98620.25
2022-11-16T03:41:09.375Z,98627.91
2022-11-16T03:43:39.058Z,98623.03
2022-11-16T03:46:08.143Z,98568.56
2022-11-16T03:48:39.412Z,98591.91
2022-11-16T03:51:15.217Z,98571.38
2022-11-16T03:53:43.841Z,98619.03
2022-11-16T03:56:13.229Z,98549.13
2022-11-16T03:58:42.232Z,98576.63
2022-11-16T04:01:10.885Z,98586.75
2022-11-16T04:03:39.540Z,98604.72
2022-11-16T04:06:29.715Z,98605.56
2022-11-16T04:09:16.527Z,98588.44
2022-11-16T04:12:03.992Z,98566.91
2022-11-16T04:14:51.221Z,98592.44
2022-11-16T04:17:41.738Z,98536.63
2022-11-16T04:20:31.389Z,98538.72
2022-11-16T04:23:32.399Z,98586.63
2022-11-16T04:26:00.843Z,98502.31
2022-11-16T04:28:34.064Z,98576.09
2022-11-16T04:31:24.853Z,98582.47
2022-11-16T04:34:19.355Z,98586.63
2022-11-16T04:37:10.766Z,98560.75
2022-11-16T04:39:40.522Z,98566.91
2022-11-16T04:42:20.021Z,98586.03
2022-11-16T04:45:10.425Z,98579.94
2022-11-16T04:47:52.087Z,98552.72
2022-11-16T04:50:22.021Z,98560.75
2022-11-16T04:52:51.602Z,98486.50
2022-11-16T04:55:21.909Z,98562.59
2022-11-16T04:57:51.806Z,98563.56
2022-11-16T05:00:22.540Z,98514.69
2022-11-16T05:02:53.690Z,98566.72
2022-11-16T05:05:23.816Z,98530.63
2022-11-16T05:07:53.589Z,98554.94
2022-11-16T05:10:27.201Z,98549.78
2022-11-16T05:12:57.498Z,98550.22
2022-11-16T05:15:26.593Z,98547.69
2022-11-16T05:17:55.981Z,98552.16
2022-11-16T05:20:44.905Z,98559.38
2022-11-16T05:23:33.912Z,98482.31
2022-11-16T05:26:08.160Z,98564.50
2022-11-16T05:28:36.694Z,98545.47
2022-11-16T05:31:04.828Z,98517.47
2022-11-16T05:33:33.379Z,98544.09
2022-11-16T05:36:01.643Z,98530.09
2022-11-16T05:38:29.743Z,98539.94
2022-11-16T05:41:00.750Z,98534.66
2022-11-16T05:43:30.364Z,98523.56
2022-11-16T05:46:08.217Z,98519.13
2022-11-16T05:48:36.941Z,98539.69
2022-11-16T05:51:06.729Z,98540.13
2022-11-16T05:53:35.738Z,98534.25
2022-11-16T05:56:08.083Z,98533.31
2022-11-16T05:58:39.723Z,98488.44
2022-11-16T06:01:07.861Z,98481.66
2022-11-16T06:03:36.744Z,98516.75
2022-11-16T06:06:05.674Z,98540.75
2022-11-16T06:08:34.079Z,98552.03
2022-11-16T06:11:08.913Z,98537.72
2022-11-16T06:13:37.906Z,98522.31
2022-11-16T06:16:07.741Z,98549.94
2022-11-16T06:18:43.360Z,98545.50
2022-11-16T06:21:13.829Z,98557.84
2022-11-16T06:23:42.492Z,98548.69
2022-11-16T06:26:10.765Z,98505.66
2022-11-16T06:28:40.349Z,98555.75
2022-11-16T06:31:08.593Z,98562.31
2022-11-16T06:33:42.037Z,98557.47
2022-11-16T06:36:21.569Z,98549.69
2022-11-16T06:38:51.252Z,98553.44
2022-11-16T06:41:21.168Z,98556.38
2022-11-16T06:54:04.539Z,98556.22
2022-11-16T06:56:35.423Z,98538.56
2022-11-16T06:59:06.415Z,98496.34
2022-11-16T07:01:36.065Z,98550.94
2022-11-16T07:04:12.157Z,98543.72
2022-11-16T07:06:44.304Z,98544.13
2022-11-16T07:09:15.406Z,98538.72
2022-11-16T07:11:44.806Z,98538.84
2022-11-16T07:14:14.663Z,98474.28
2022-11-16T07:16:44.120Z,98536.34
2022-11-16T07:19:13.008Z,98491.34
2022-11-16T07:21:42.181Z,98533.31
2022-11-16T07:24:15.570Z,98542.19
2022-11-16T07:26:43.646Z,98537.75
2022-11-16T07:29:16.925Z,98461.25
2022-11-16T07:32:03.835Z,98532.59
2022-11-16T07:34:51.825Z,98541.66
2022-11-16T07:37:20.022Z,98534.13
2022-11-16T07:39:48.687Z,98489.84
2022-11-16T07:42:17.315Z,98544.97
2022-11-16T07:44:52.680Z,98548.56
2022-11-16T07:47:20.804Z,98535.25
2022-11-16T07:49:49.166Z,98542.47
2022-11-16T07:52:20.331Z,98547.88
2022-11-16T07:54:57.949Z,98546.91
2022-11-16T07:57:28.264Z,98550.25
2022-11-16T08:00:02.753Z,98503.47
2022-11-16T08:02:41.029Z,98538.31
2022-11-16T08:05:12.634Z,98545.53
2022-11-16T08:07:41.213Z,98514.28
2022-11-16T08:10:09.742Z,98501.63
2022-11-16T08:12:38.038Z,98548.56
2022-11-16T08:15:07.850Z,98491.38
2022-11-16T08:17:35.830Z,98496.09
2022-11-16T08:20:06.810Z,98542.34
2022-11-16T08:22:36.056Z,98545.38
2022-11-16T08:25:04.631Z,98544.97
2022-11-16T08:27:33.558Z,98490.53
2022-11-16T08:30:09.311Z,98545.25
2022-11-16T08:32:38.383Z,98536.91
2022-11-16T08:35:07.045Z,98505.13
2022-11-16T08:37:35.754Z,98457.78
2022-11-16T08:40:04.932Z,98536.09
2022-11-16T08:42:43.296Z,98531.50
2022-11-16T08:45:12.562Z,98540.22
2022-11-16T08:47:40.657Z,98490.53
2022-11-16T08:50:09.755Z,98529.13
2022-11-16T08:52:39.352Z,98538.72
2022-11-16T08:55:08.269Z,98540.25
2022-11-16T08:57:36.658Z,98538.00
2022-11-16T09:00:11.406Z,98485.50
2022-11-16T09:02:39.322Z,98530.94
2022-11-16T09:05:08.282Z,98535.66
2022-11-16T09:07:36.511Z,98524.69
2022-11-16T09:10:05.300Z,98517.34
2022-11-16T09:12:35.438Z,98511.66
2022-11-16T09:15:06.006Z,98510.78
2022-11-16T09:17:34.047Z,98459.09
2022-11-16T09:20:01.923Z,98450.94
2022-11-16T09:22:30.001Z,98513.25
2022-11-16T09:24:58.037Z,98474.38
2022-11-16T09:27:26.003Z,98505.81
2022-11-16T09:29:54.269Z,98507.47
2022-11-16T09:32:22.217Z,98506.38
2022-11-16T09:34:51.520Z,98491.38
2022-11-16T09:37:19.608Z,98503.16
2022-11-16T09:39:47.476Z,98463.88
2022-11-16T09:43:01.397Z,98515.69
2022-11-16T09:45:39.161Z,98522.75
2022-11-16T09:48:12.714Z,98504.69
2022-11-16T09:51:08.268Z,98498.72
2022-11-16T09:54:08.078Z,98505.53
2022-11-16T09:56:41.249Z,98485.81
2022-11-16T09:59:13.510Z,98495.25
2022-11-16T10:01:53.287Z,98448.47
2022-11-16T10:04:37.328Z,98451.22
2022-11-16T10:07:22.713Z,98498.88
2022-11-16T10:09:50.886Z,98457.38
2022-11-16T10:12:55.844Z,98490.53
2022-11-16T10:15:26.804Z,98488.19
2022-11-16T10:18:13.485Z,98473.88
2022-11-16T10:21:02.271Z,98492.22
2022-11-16T10:24:01.669Z,98484.28
2022-11-16T10:26:55.871Z,98486.78
2022-11-16T10:29:52.916Z,98483.16
2022-11-16T10:32:28.453Z,98443.75
2022-11-16T10:35:10.946Z,98466.63
2022-11-16T10:37:47.229Z,98432.75
2022-11-16T10:40:29.870Z,98464.84
2022-11-16T10:43:13.584Z,98489.81
2022-11-16T10:46:08.547Z,98447.66
2022-11-16T10:49:02.884Z,98482.19
2022-11-16T10:51:30.984Z,98482.94
2022-11-16T10:53:59.166Z,98469.75
2022-11-16T10:56:39.832Z,98465.50
2022-11-16T10:59:14.041Z,98473.97
2022-11-16T11:01:44.955Z,98470.66
2022-11-16T11:04:31.433Z,98376.59
2022-11-16T11:07:02.922Z,98470.91
2022-11-16T11:09:41.903Z,98456.03
2022-11-16T11:12:37.248Z,98466.03
2022-11-16T11:15:10.958Z,98467.31
2022-11-16T11:17:47.422Z,98482.47
2022-11-16T11:20:21.454Z,98473.13
2022-11-16T11:23:13.153Z,98466.31
2022-11-16T11:25:57.649Z,98467.97
2022-11-16T11:28:46.822Z,98307.91
2022-11-16T11:31:28.697Z,98472.97
2022-11-16T11:34:01.128Z,98446.63
2022-11-16T11:36:39.556Z,98460.25
2022-11-16T11:39:14.037Z,98469.78
2022-11-16T11:41:45.738Z,98451.88
2022-11-16T11:44:13.590Z,98416.38
2022-11-16T11:49:50.159Z,98458.97
2022-11-16T11:52:39.563Z,98456.03
2022-11-16T11:55:08.635Z,98378.63
2022-11-16T11:57:43.361Z,98450.66
2022-11-16T12:00:16.201Z,98459.63
2022-11-16T12:03:31.896Z,98461.88
2022-11-16T12:06:13.232Z,98435.00
2022-11-16T12:08:50.935Z,98412.41
2022-11-16T12:11:39.117Z,98460.94
2022-11-16T12:14:49.721Z,98450.81
2022-11-16T12:17:46.621Z,98449.41
2022-11-16T12:20:27.239Z,98446.94
2022-11-16T12:23:22.825Z,98419.03
2022-11-16T12:26:09.737Z,98439.44
2022-11-16T12:28:54.442Z,98427.09
2022-11-16T12:32:10.970Z,98432.78
2022-11-16T12:34:57.066Z,98431.25
2022-11-16T12:37:51.371Z,98451.53
2022-11-16T12:40:31.143Z,98443.63
2022-11-16T12:43:26.472Z,98398.25
2022-11-16T12:46:01.862Z,98436.97
2022-11-16T12:49:17.347Z,98428.91
2022-11-16T12:52:27.783Z,98428.63
2022-11-16T12:55:26.780Z,98415.56
2022-11-16T12:58:19.353Z,98428.63
2022-11-16T13:01:08.402Z,98420.84
2022-11-16T13:03:46.923Z,98422.53
2022-11-16T13:06:27.346Z,98430.56
2022-11-16T13:09:21.613Z,98361.88
2022-11-16T13:11:57.808Z,98429.59
2022-11-16T13:14:30.624Z,98368.97
2022-11-16T13:17:01.468Z,98389.47
2022-11-16T13:19:29.959Z,98424.44
2022-11-16T13:22:16.835Z,98376.59
2022-11-16T13:25:11.601Z,98426.13
2022-11-16T13:27:50.104Z,98431.41
2022-11-16T13:30:33.211Z,98420.56
2022-11-16T13:33:50.690Z,98414.59
2022-11-16T13:36:39.406Z,98415.81
2022-11-16T13:39:10.175Z,98418.88
2022-11-16T13:41:50.487Z,98382.50
2022-11-16T13:44:21.421Z,98427.75
2022-11-16T13:46:56.198Z,98434.16
2022-11-16T13:49:42.150Z,98300.59
2022-11-16T13:52:54.035Z,98432.06
2022-11-16T13:55:29.059Z,98442.47
2022-11-16T13:58:02.768Z,98338.97
2022-11-16T14:00:39.661Z,98431.09
2022-11-16T14:03:38.564Z,98425.53
2022-11-16T14:06:13.881Z,98437.75
2022-11-16T14:08:56.583Z,98430.41
2022-11-16T14:11:32.031Z,98434.28
2022-11-16T14:14:05.731Z,98418.19
2022-11-16T14:16:50.219Z,98409.03
2022-11-16T14:19:49.479Z,98425.25
2022-11-16T14:22:32.669Z,98432.75
2022-11-16T14:25:45.261Z,98434.66
2022-11-16T14:28:57.243Z,98437.16
2022-11-16T14:31:46.331Z,98421.59
2022-11-16T14:34:41.719Z,98430.19
2022-11-16T14:37:31.471Z,98433.97
2022-11-16T14:40:14.203Z,98444.22
2022-11-16T14:45:57.455Z,98426.38
2022-11-16T14:48:26.339Z,98384.19
2022-11-16T14:51:38.184Z,98394.19
2022-11-16T14:54:48.869Z,98401.53
2022-11-16T14:57:23.860Z,98426.81
2022-11-16T15:00:18.391Z,98371.44
2022-11-16T15:02:52.087Z,98417.38
2022-11-16T15:05:26.982Z,98404.88
2022-11-16T15:07:58.583Z,98411.72
2022-11-16T15:10:29.490Z,98371.28
2022-11-16T15:12:58.174Z,98372.28
2022-11-16T15:15:31.916Z,98404.66
2022-11-16T15:17:59.947Z,98412.69
2022-11-16T15:20:31.565Z,98392.50
2022-11-16T15:23:01.322Z,98414.63
2022-11-16T15:25:56.353Z,98401.84
2022-11-16T15:28:31.506Z,98375.63
2022-11-16T15:31:04.704Z,98408.50
2022-11-16T15:33:41.328Z,98325.22
2022-11-16T15:36:39.663Z,98422.25
2022-11-16T15:39:23.660Z,98424.47
2022-11-16T15:41:52.375Z,98428.91
2022-11-16T15:44:22.841Z,98415.97
2022-11-16T15:46:57.867Z,98430.56
2022-11-16T15:49:37.718Z,98433.63
2022-11-16T15:52:06.179Z,98382.09
2022-11-16T15:54:54.861Z,98349.31
2022-11-16T15:57:26.062Z,98412.91
2022-11-16T15:59:57.322Z,98403.19
2022-11-16T16:02:29.386Z,98410.69
2022-11-16T16:04:58.067Z,98432.06
2022-11-16T16:07:49.693Z,98423.91
2022-11-16T16:10:20.884Z,98434.69
2022-11-16T16:12:55.019Z,98427.66
2022-11-16T16:15:34.225Z,98432.91
2022-11-16T16:18:04.921Z,98415.41
2022-11-16T16:20:33.392Z,98435.97
2022-11-16T16:23:16.144Z,98440.41
2022-11-16T16:25:50.106Z,98442.22
2022-11-16T16:28:18.603Z,98440.72
2022-11-16T16:30:46.718Z,98437.63
2022-11-16T16:33:19.952Z,98314.66
2022-11-16T16:35:49.979Z,98377.25
2022-11-16T16:38:18.024Z,98428.66
2022-11-16T16:40:46.069Z,98429.22
2022-11-16T16:43:14.651Z,98372.16
2022-11-16T16:45:44.126Z,98436.59
2022-11-16T16:48:12.946Z,98430.91
2022-11-16T16:50:40.963Z,98409.78
2022-11-16T16:53:12.959Z,98433.53
2022-11-16T16:55:42.298Z,98426.59
2022-11-16T16:58:15.453Z,98433.81
2022-11-16T17:00:43.863Z,98431.75
2022-11-16T17:03:11.889Z,98437.56
2022-11-16T17:05:40.001Z,98389.50
2022-11-16T17:08:08.226Z,98434.38
2022-11-16T17:10:39.604Z,98434.50
2022-11-16T17:13:09.562Z,98427.44
2022-11-16T17:15:38.396Z,98439.34
2022-11-16T17:18:06.321Z,98431.84
2022-11-16T17:20:34.425Z,98380.59
2022-11-16T17:23:03.224Z,98388.94
2022-11-16T17:25:33.332Z,98435.31
2022-11-16T17:28:01.474Z,98439.88
2022-11-16T17:30:29.556Z,98435.28
2022-11-16T17:33:00.123Z,98437.06
2022-11-16T17:35:31.170Z,98440.53
2022-11-16T17:37:59.130Z,98254.09
2022-11-16T17:40:27.159Z,98390.91
2022-11-16T17:42:58.179Z,98425.41
2022-11-16T17:45:26.342Z,98442.53
2022-11-16T17:47:54.725Z,98449.34
2022-11-16T17:50:23.014Z,98396.81
2022-11-16T17:52:51.075Z,98409.47
2022-11-16T17:55:19.016Z,98436.69
2022-11-16T17:57:48.769Z,98446.28
2022-11-16T18:00:18.004Z,98440.47
2022-11-16T18:02:45.996Z,98444.50
2022-11-16T18:05:14.514Z,98373.44
2022-11-16T18:07:43.078Z,98433.72
2022-11-16T18:10:15.000Z,98447.91
2022-11-16T18:12:47.339Z,98438.59
2022-11-16T18:15:32.113Z,98442.63
2022-11-16T18:18:00.396Z,98433.91
2022-11-16T18:20:29.644Z,98382.63
2022-11-16T18:22:58.085Z,98435.00
2022-11-16T18:25:26.372Z,98440.28
2022-11-16T18:27:55.927Z,98420.09
2022-11-16T18:30:24.514Z,98425.13
2022-11-16T18:32:52.978Z,98445.53
2022-11-16T18:35:21.010Z,98439.44
2022-11-16T18:37:49.146Z,98422.63
2022-11-16T18:40:18.322Z,98435.69
2022-11-16T18:42:46.521Z,98418.38
2022-11-16T18:45:14.701Z,98434.03
2022-11-16T18:47:43.128Z,98417.78
2022-11-16T18:50:19.004Z,98446.34
2022-11-16T18:52:49.794Z,98430.13
2022-11-16T18:55:17.876Z,98451.66
2022-11-16T18:57:45.913Z,98448.63
2022-11-16T19:00:15.558Z,98393.47
2022-11-16T19:02:45.506Z,98445.34
2022-11-16T19:05:13.620Z,98444.72
2022-11-16T19:07:42.685Z,98449.47
2022-11-16T19:10:10.986Z,98465.13
2022-11-16T19:12:39.377Z,98411.66
2022-11-16T19:15:07.821Z,98407.91
2022-11-16T19:17:53.156Z,98444.59
2022-11-16T19:20:24.009Z,98461.09
2022-11-16T19:22:51.974Z,98460.50
2022-11-16T19:25:20.004Z,98458.59
2022-11-16T19:27:49.487Z,98455.38
2022-11-16T19:30:18.926Z,98462.63
2022-11-16T19:32:46.930Z,98453.16
2022-11-16T19:35:16.689Z,98463.69
2022-11-16T19:37:44.783Z,98453.66
2022-11-16T19:40:13.305Z,98404.88
2022-11-16T19:42:43.275Z,98457.28
2022-11-16T19:45:12.078Z,98408.25
2022-11-16T19:47:40.210Z,98449.13
2022-11-16T19:50:11.043Z,98468.28
2022-11-16T19:52:39.366Z,98409.81
2022-11-16T19:55:08.009Z,98430.88
2022-11-16T19:57:36.272Z,98467.47
2022-11-16T20:00:05.490Z,98423.94
2022-11-16T20:02:33.851Z,98464.06
2022-11-16T20:05:02.413Z,98468.84
2022-11-16T20:07:30.468Z,98447.91
2022-11-16T20:09:58.943Z,98475.53
2022-11-16T20:12:27.675Z,98473.59
2022-11-16T20:14:58.547Z,98474.81
2022-11-16T20:17:26.536Z,98475.13
2022-11-16T20:19:54.922Z,98479.56
2022-11-16T20:22:23.364Z,98471.34
2022-11-16T20:24:52.122Z,98469.41
2022-11-16T20:27:20.551Z,98465.78
2022-11-16T20:29:48.970Z,98454.31
2022-11-16T20:32:17.197Z,98402.34
2022-11-16T20:34:45.825Z,98441.50
2022-11-16T20:37:13.879Z,98421.22
2022-11-16T20:39:42.445Z,98477.19
2022-11-16T20:42:10.777Z,98409.41
2022-11-16T20:44:38.909Z,98458.44
2022-11-16T20:47:06.971Z,98464.69
2022-11-16T20:49:35.905Z,98457.13
2022-11-16T20:52:04.250Z,98463.16
2022-11-16T20:54:32.911Z,98470.75
2022-11-16T20:57:01.184Z,98393.53
2022-11-16T20:59:29.260Z,98470.56
2022-11-16T21:01:57.716Z,98459.84
2022-11-16T21:04:26.145Z,98437.84
2022-11-16T21:06:54.313Z,98470.69
2022-11-16T21:09:23.065Z,98404.97
2022-11-16T21:12:10.240Z,98408.84
2022-11-16T21:14:39.614Z,98469.59
2022-11-16T21:17:07.704Z,98444.50
2022-11-16T21:19:35.793Z,98461.44
2022-11-16T21:22:03.834Z,98414.91
2022-11-16T21:24:32.421Z,98453.81
2022-11-16T21:27:00.670Z,98452.44
2022-11-16T21:29:30.668Z,98461.56
2022-11-16T21:31:58.790Z,98461.38
2022-11-16T21:34:29.994Z,98464.03
2022-11-16T21:36:58.340Z,98412.63
2022-11-16T21:39:26.525Z,98467.81
2022-11-16T21:41:54.586Z,98416.50
2022-11-16T21:44:22.655Z,98471.78
2022-11-16T21:46:53.588Z,98464.34
2022-11-16T21:49:21.867Z,98469.91
2022-11-16T21:51:50.014Z,98461.00
2022-11-16T21:54:17.987Z,98417.91
2022-11-16T21:56:46.141Z,98467.25
2022-11-16T21:59:36.271Z,98456.13
2022-11-16T22:02:04.582Z,98486.16
2022-11-16T22:04:51.263Z,98479.81
2022-11-16T22:07:34.612Z,98475.53
2022-11-16T22:10:11.982Z,98480.31
2022-11-16T22:12:40.306Z,98479.63
2022-11-16T22:15:09.513Z,98487.53
2022-11-16T22:17:43.258Z,98491.53
2022-11-16T22:20:11.988Z,98443.03
2022-11-16T22:22:40.216Z,98485.47
2022-11-16T22:25:08.894Z,98443.25
2022-11-16T22:27:52.356Z,98489.56
2022-11-16T22:30:25.424Z,98486.72
2022-11-16T22:32:53.704Z,98472.09
2022-11-16T22:35:22.150Z,98492.19
2022-11-16T22:37:55.985Z,98487.53
2022-11-16T22:40:35.984Z,98482.75
2022-11-16T22:43:04.453Z,98478.78
2022-11-16T22:45:32.630Z,98428.50
2022-11-16T22:48:07.289Z,98471.28
2022-11-16T22:50:35.358Z,98487.84
2022-11-16T22:53:03.362Z,98473.06
2022-11-16T22:55:34.399Z,98477.94
2022-11-16T22:58:04.640Z,98473.22
2022-11-16T23:00:40.527Z,98477.50
2022-11-16T23:03:10.331Z,98413.28
2022-11-16T23:05:38.849Z,98414.56
2022-11-16T23:08:06.819Z,98458.78
2022-11-16T23:10:55.822Z,98430.69
2022-11-16T23:13:42.639Z,98470.72
2022-11-16T23:16:10.815Z,98466.03
2022-11-16T23:18:38.823Z,98458.69
2022-11-16T23:21:25.766Z,98438.03
2022-11-16T23:24:29.324Z,98464.94
2022-11-16T23:27:17.375Z,98453.69
2022-11-16T23:29:45.678Z,98421.56
2022-11-16T23:32:13.854Z,98416.28
2022-11-16T23:34:41.904Z,98437.78
2022-11-16T23:37:10.031Z,98460.25
2022-11-16T23:39:37.911Z,98436.63
2022-11-16T23:42:24.846Z,98444.06
2022-11-16T23:44:52.994Z,98462.53
2022-11-16T23:47:21.262Z,98478.50
2022-11-16T23:49:49.403Z,98419.09
2022-11-16T23:52:17.625Z,98478.91
2022-11-16T23:54:45.983Z,98482.47
2022-11-16T23:57:14.071Z,98483.56
2022-11-16T23:59:42.352Z,98475.56
